| Date | Time | Temp. (oF) | Dew Point (oF) | Rel. Hum. (%) | Press. (in.) | Wind Dir. | Wind Speed (mph) | Hourly Rainfall (in.) |
|
|---|---|---|---|---|---|---|---|---|---|
| 1 | 02/21 | 00:00 | 5 | -2 | 70 | 30.47 | NNW | 0 | 0.00 |
| 2 | 02/20 | 23:00 | 5 | -3 | 67 | 30.47 | NNW | 0 | 0.00 |
| 3 | 02/20 | 22:00 | 5 | -2 | 71 | 30.46 | NW | 0 | 0.00 |
| 4 | 02/20 | 21:00 | 7 | -3 | 61 | 30.45 | NNW | 0 | 0.00 |
| 5 | 02/20 | 20:00 | 8 | -4 | 57 | 30.43 | NNW | 0 | 0.00 |
| 6 | 02/20 | 19:00 | 11 | -6 | 44 | 30.42 | W | 0 | 0.00 |
| 7 | 02/20 | 18:00 | 13 | -6 | 40 | 30.39 | NNW | 2 | 0.00 |
| 8 | 02/20 | 17:00 | 15 | -7 | 36 | 30.37 | WNW | 7 | 0.00 |
| 9 | 02/20 | 16:00 | 15 | -6 | 38 | 30.37 | SSW | 10 | 0.00 |
| 10 | 02/20 | 15:00 | 14 | -7 | 37 | 30.37 | W | 10 | 0.00 |
| 11 | 02/20 | 14:00 | 14 | -6 | 39 | 30.37 | NNW | 6 | 0.00 |
| 12 | 02/20 | 13:00 | 12 | -8 | 39 | 30.37 | SW | 10 | 0.00 |
| 13 | 02/20 | 12:00 | 9 | -11 | 39 | 30.37 | N | 16 | 0.00 |
| 14 | 02/20 | 11:00 | 7 | -12 | 39 | 30.38 | WNW | 11 | 0.00 |
| 15 | 02/20 | 10:00 | 5 | -13 | 41 | 30.36 | WSW | 7 | 0.00 |
| 16 | 02/20 | 09:00 | 3 | -13 | 46 | 30.35 | WSW | 6 | 0.00 |
| 17 | 02/20 | 08:00 | 0 | -14 | 49 | 30.34 | WNW | 12 | 0.00 |
| 18 | 02/20 | 07:00 | -2 | -15 | 51 | 30.31 | WNW | 10 | 0.00 |
| 19 | 02/20 | 06:00 | -1 | -15 | 49 | 30.27 | W | 6 | 0.00 |
| 20 | 02/20 | 05:00 | -1 | -15 | 49 | 30.25 | N | 5 | 0.00 |
| 21 | 02/20 | 04:00 | -1 | -16 | 48 | 30.23 | WNW | 12 | 0.00 |
| 22 | 02/20 | 03:00 | 0 | -15 | 48 | 30.21 | SW | 4 | 0.00 |
| 23 | 02/20 | 02:00 | 0 | -15 | 48 | 30.20 | NNW | 7 | 0.00 |
| 24 | 02/20 | 01:00 | 1 | -14 | 48 | 30.19 | W | 9 | 0.00 |